sensor_id;sensor_type;location;lat;lon;timestamp;temperature;humidity
1415;DHT22;702;49.466;11.086;2023-04-24T00:02:02;10.80;99.90
1415;DHT22;702;49.466;11.086;2023-04-24T00:04:29;10.80;99.90
1415;DHT22;702;49.466;11.086;2023-04-24T00:06:57;10.80;99.90
1415;DHT22;702;49.466;11.086;2023-04-24T00:09:25;10.80;99.90
1415;DHT22;702;49.466;11.086;2023-04-24T00:11:54;10.70;99.90
1415;DHT22;702;49.466;11.086;2023-04-24T00:14:22;10.70;99.90
1415;DHT22;702;49.466;11.086;2023-04-24T00:16:49;10.60;99.90
1415;DHT22;702;49.466;11.086;2023-04-24T00:19:16;10.60;99.90
1415;DHT22;702;49.466;11.086;2023-04-24T00:21:47;10.60;99.90
1415;DHT22;702;49.466;11.086;2023-04-24T00:24:15;10.60;99.90
1415;DHT22;702;49.466;11.086;2023-04-24T00:26:42;10.70;99.90
1415;DHT22;702;49.466;11.086;2023-04-24T00:29:11;10.60;99.90
1415;DHT22;702;49.466;11.086;2023-04-24T00:31:39;10.70;99.90
1415;DHT22;702;49.466;11.086;2023-04-24T00:34:06;10.70;99.90
1415;DHT22;702;49.466;11.086;2023-04-24T00:36:33;10.60;99.90
1415;DHT22;702;49.466;11.086;2023-04-24T00:39:01;10.60;99.90
1415;DHT22;702;49.466;11.086;2023-04-24T00:41:28;10.60;99.90
1415;DHT22;702;49.466;11.086;2023-04-24T00:43:55;10.60;99.90
1415;DHT22;702;49.466;11.086;2023-04-24T00:46:24;10.50;99.90
1415;DHT22;702;49.466;11.086;2023-04-24T00:48:51;10.50;99.90
1415;DHT22;702;49.466;11.086;2023-04-24T00:51:19;10.60;99.90
1415;DHT22;702;49.466;11.086;2023-04-24T00:53:46;10.50;99.90
1415;DHT22;702;49.466;11.086;2023-04-24T00:56:13;10.40;99.90
1415;DHT22;702;49.466;11.086;2023-04-24T00:58:42;10.40;99.90
1415;DHT22;702;49.466;11.086;2023-04-24T01:01:09;10.40;99.90
1415;DHT22;702;49.466;11.086;2023-04-24T01:03:40;10.40;99.90
1415;DHT22;702;49.466;11.086;2023-04-24T01:06:09;10.40;99.90
1415;DHT22;702;49.466;11.086;2023-04-24T01:08:37;10.50;99.90
1415;DHT22;702;49.466;11.086;2023-04-24T01:11:05;10.40;99.90
1415;DHT22;702;49.466;11.086;2023-04-24T01:13:33;10.40;99.90
1415;DHT22;702;49.466;11.086;2023-04-24T01:16:01;10.50;99.90
1415;DHT22;702;49.466;11.086;2023-04-24T01:18:28;10.50;99.90
1415;DHT22;702;49.466;11.086;2023-04-24T01:20:59;10.50;99.90
1415;DHT22;702;49.466;11.086;2023-04-24T01:23:27;10.50;99.90
1415;DHT22;702;49.466;11.086;2023-04-24T01:25:55;10.50;99.90
1415;DHT22;702;49.466;11.086;2023-04-24T01:28:22;10.50;99.90
1415;DHT22;702;49.466;11.086;2023-04-24T01:30:50;10.40;99.90
1415;DHT22;702;49.466;11.086;2023-04-24T01:33:17;10.40;99.90
1415;DHT22;702;49.466;11.086;2023-04-24T01:35:46;10.50;99.90
1415;DHT22;702;49.466;11.086;2023-04-24T01:38:13;10.50;99.90
1415;DHT22;702;49.466;11.086;2023-04-24T01:40:42;10.60;99.60
1415;DHT22;702;49.466;11.086;2023-04-24T01:43:09;10.60;99.90
1415;DHT22;702;49.466;11.086;2023-04-24T01:45:36;10.60;99.80
1415;DHT22;702;49.466;11.086;2023-04-24T01:48:03;10.60;99.30
1415;DHT22;702;49.466;11.086;2023-04-24T01:50:31;10.60;99.40
1415;DHT22;702;49.466;11.086;2023-04-24T01:52:58;10.60;99.00
1415;DHT22;702;49.466;11.086;2023-04-24T01:55:25;10.70;98.80
1415;DHT22;702;49.466;11.086;2023-04-24T01:57:55;10.70;98.00
1415;DHT22;702;49.466;11.086;2023-04-24T02:00:23;10.70;97.60
1415;DHT22;702;49.466;11.086;2023-04-24T02:02:50;10.70;98.20
1415;DHT22;702;49.466;11.086;2023-04-24T02:05:18;10.70;98.30
1415;DHT22;702;49.466;11.086;2023-04-24T02:07:45;10.60;99.20
1415;DHT22;702;49.466;11.086;2023-04-24T02:10:12;10.60;97.90
1415;DHT22;702;49.466;11.086;2023-04-24T02:12:40;10.70;98.30
1415;DHT22;702;49.466;11.086;2023-04-24T02:15:09;10.70;97.50
1415;DHT22;702;49.466;11.086;2023-04-24T02:17:37;10.70;97.70
1415;DHT22;702;49.466;11.086;2023-04-24T02:20:05;10.70;95.90
1415;DHT22;702;49.466;11.086;2023-04-24T02:22:33;10.70;95.90
1415;DHT22;702;49.466;11.086;2023-04-24T02:25:01;10.60;96.60
1415;DHT22;702;49.466;11.086;2023-04-24T02:27:28;10.60;96.60
1415;DHT22;702;49.466;11.086;2023-04-24T02:29:55;10.60;96.70
1415;DHT22;702;49.466;11.086;2023-04-24T02:32:24;10.60;96.50
1415;DHT22;702;49.466;11.086;2023-04-24T02:34:51;10.50;96.00
1415;DHT22;702;49.466;11.086;2023-04-24T02:37:18;10.50;96.30
1415;DHT22;702;49.466;11.086;2023-04-24T02:39:47;10.50;96.40
1415;DHT22;702;49.466;11.086;2023-04-24T02:42:15;10.50;96.20
1415;DHT22;702;49.466;11.086;2023-04-24T02:44:43;10.50;96.00
1415;DHT22;702;49.466;11.086;2023-04-24T02:47:10;10.50;95.70
1415;DHT22;702;49.466;11.086;2023-04-24T02:49:39;10.60;95.80
1415;DHT22;702;49.466;11.086;2023-04-24T02:52:06;10.60;95.00
1415;DHT22;702;49.466;11.086;2023-04-24T02:54:33;10.60;95.00
1415;DHT22;702;49.466;11.086;2023-04-24T02:57:01;10.60;95.50
1415;DHT22;702;49.466;11.086;2023-04-24T02:59:28;10.60;94.90
1415;DHT22;702;49.466;11.086;2023-04-24T03:01:55;10.60;95.60
1415;DHT22;702;49.466;11.086;2023-04-24T03:04:23;10.60;95.20
1415;DHT22;702;49.466;11.086;2023-04-24T03:06:52;10.60;95.50
1415;DHT22;702;49.466;11.086;2023-04-24T03:09:22;10.60;95.70
1415;DHT22;702;49.466;11.086;2023-04-24T03:11:49;10.70;95.70
1415;DHT22;702;49.466;11.086;2023-04-24T03:14:16;10.70;95.90
1415;DHT22;702;49.466;11.086;2023-04-24T03:16:44;10.70;96.90
1415;DHT22;702;49.466;11.086;2023-04-24T03:19:11;10.70;96.10
1415;DHT22;702;49.466;11.086;2023-04-24T03:21:39;10.70;96.80
1415;DHT22;702;49.466;11.086;2023-04-24T03:24:08;10.70;97.00
1415;DHT22;702;49.466;11.086;2023-04-24T03:26:35;10.60;96.80
1415;DHT22;702;49.466;11.086;2023-04-24T03:29:03;10.60;97.40
1415;DHT22;702;49.466;11.086;2023-04-24T03:31:30;10.60;97.60
1415;DHT22;702;49.466;11.086;2023-04-24T03:34:00;10.60;98.00
1415;DHT22;702;49.466;11.086;2023-04-24T03:36:27;10.60;97.20
1415;DHT22;702;49.466;11.086;2023-04-24T03:38:54;10.60;97.40
1415;DHT22;702;49.466;11.086;2023-04-24T03:41:23;10.60;96.70
1415;DHT22;702;49.466;11.086;2023-04-24T03:43:50;10.50;98.10
1415;DHT22;702;49.466;11.086;2023-04-24T03:46:18;10.50;98.10
1415;DHT22;702;49.466;11.086;2023-04-24T03:48:45;10.40;98.60
1415;DHT22;702;49.466;11.086;2023-04-24T03:51:12;10.40;97.90
1415;DHT22;702;49.466;11.086;2023-04-24T03:53:39;10.40;98.50
1415;DHT22;702;49.466;11.086;2023-04-24T03:56:06;10.30;98.80
1415;DHT22;702;49.466;11.086;2023-04-24T03:58:37;10.30;98.20
1415;DHT22;702;49.466;11.086;2023-04-24T04:01:05;10.30;98.90
1415;DHT22;702;49.466;11.086;2023-04-24T04:03:32;10.40;98.30
1415;DHT22;702;49.466;11.086;2023-04-24T04:05:59;10.40;97.70
1415;DHT22;702;49.466;11.086;2023-04-24T04:08:27;10.40;97.70
1415;DHT22;702;49.466;11.086;2023-04-24T04:10:54;10.40;97.70
1415;DHT22;702;49.466;11.086;2023-04-24T04:13:21;10.40;98.60
1415;DHT22;702;49.466;11.086;2023-04-24T04:15:49;10.30;98.50
1415;DHT22;702;49.466;11.086;2023-04-24T04:18:16;10.30;98.40
1415;DHT22;702;49.466;11.086;2023-04-24T04:20:43;10.30;99.10
1415;DHT22;702;49.466;11.086;2023-04-24T04:23:11;10.30;98.90
1415;DHT22;702;49.466;11.086;2023-04-24T04:25:38;10.30;98.70
1415;DHT22;702;49.466;11.086;2023-04-24T04:28:05;10.30;98.50
1415;DHT22;702;49.466;11.086;2023-04-24T04:30:32;10.30;98.80
1415;DHT22;702;49.466;11.086;2023-04-24T04:33:01;10.30;98.60
1415;DHT22;702;49.466;11.086;2023-04-24T04:35:29;10.20;99.20
1415;DHT22;702;49.466;11.086;2023-04-24T04:37:56;10.30;98.90
1415;DHT22;702;49.466;11.086;2023-04-24T04:40:24;10.30;98.90
1415;DHT22;702;49.466;11.086;2023-04-24T04:42:52;10.30;98.50
1415;DHT22;702;49.466;11.086;2023-04-24T04:45:19;10.30;98.60
1415;DHT22;702;49.466;11.086;2023-04-24T04:47:47;10.30;98.70
1415;DHT22;702;49.466;11.086;2023-04-24T04:50:16;10.30;98.80
1415;DHT22;702;49.466;11.086;2023-04-24T04:52:44;10.30;99.40
1415;DHT22;702;49.466;11.086;2023-04-24T04:55:11;10.40;99.40
1415;DHT22;702;49.466;11.086;2023-04-24T04:57:39;10.40;98.70
1415;DHT22;702;49.466;11.086;2023-04-24T05:00:07;10.40;99.20
1415;DHT22;702;49.466;11.086;2023-04-24T05:02:37;10.40;98.40
1415;DHT22;702;49.466;11.086;2023-04-24T05:05:05;10.50;98.30
1415;DHT22;702;49.466;11.086;2023-04-24T05:07:34;10.50;97.80
1415;DHT22;702;49.466;11.086;2023-04-24T05:10:02;10.50;98.20
1415;DHT22;702;49.466;11.086;2023-04-24T05:12:30;10.50;98.60
1415;DHT22;702;49.466;11.086;2023-04-24T05:14:57;10.60;97.50
1415;DHT22;702;49.466;11.086;2023-04-24T05:17:24;10.70;96.60
1415;DHT22;702;49.466;11.086;2023-04-24T05:19:52;10.70;96.30
1415;DHT22;702;49.466;11.086;2023-04-24T05:22:19;10.80;95.50
1415;DHT22;702;49.466;11.086;2023-04-24T05:24:48;10.90;95.30
1415;DHT22;702;49.466;11.086;2023-04-24T05:27:15;11.00;94.20
1415;DHT22;702;49.466;11.086;2023-04-24T05:29:42;11.10;93.70
1415;DHT22;702;49.466;11.086;2023-04-24T05:32:10;11.20;93.40
1415;DHT22;702;49.466;11.086;2023-04-24T05:34:37;11.30;92.40
1415;DHT22;702;49.466;11.086;2023-04-24T05:37:04;11.40;91.70
1415;DHT22;702;49.466;11.086;2023-04-24T05:39:34;11.30;91.70
1415;DHT22;702;49.466;11.086;2023-04-24T05:42:03;11.30;91.90
1415;DHT22;702;49.466;11.086;2023-04-24T05:44:30;11.40;91.60
1415;DHT22;702;49.466;11.086;2023-04-24T05:46:58;11.50;91.50
1415;DHT22;702;49.466;11.086;2023-04-24T05:49:26;11.60;91.30
1415;DHT22;702;49.466;11.086;2023-04-24T05:51:53;11.60;90.90
1415;DHT22;702;49.466;11.086;2023-04-24T05:54:20;11.80;90.70
1415;DHT22;702;49.466;11.086;2023-04-24T05:56:47;11.90;90.40
1415;DHT22;702;49.466;11.086;2023-04-24T05:59:16;12.00;89.90
1415;DHT22;702;49.466;11.086;2023-04-24T06:01:44;12.00;89.80
1415;DHT22;702;49.466;11.086;2023-04-24T06:04:12;12.00;90.20
1415;DHT22;702;49.466;11.086;2023-04-24T06:06:40;12.10;89.90
1415;DHT22;702;49.466;11.086;2023-04-24T06:09:07;12.10;89.50
1415;DHT22;702;49.466;11.086;2023-04-24T06:11:34;12.00;89.70
1415;DHT22;702;49.466;11.086;2023-04-24T06:14:01;12.10;89.90
1415;DHT22;702;49.466;11.086;2023-04-24T06:16:30;12.10;90.00
1415;DHT22;702;49.466;11.086;2023-04-24T06:18:57;12.20;89.40
1415;DHT22;702;49.466;11.086;2023-04-24T06:21:24;12.30;89.20
1415;DHT22;702;49.466;11.086;2023-04-24T06:23:54;12.40;89.40
1415;DHT22;702;49.466;11.086;2023-04-24T06:26:21;12.60;88.50
1415;DHT22;702;49.466;11.086;2023-04-24T06:28:50;12.50;87.30
1415;DHT22;702;49.466;11.086;2023-04-24T06:31:19;12.30;87.30
1415;DHT22;702;49.466;11.086;2023-04-24T06:33:48;12.10;87.90
1415;DHT22;702;49.466;11.086;2023-04-24T06:36:16;12.20;88.00
1415;DHT22;702;49.466;11.086;2023-04-24T06:38:43;12.00;90.60
1415;DHT22;702;49.466;11.086;2023-04-24T06:41:10;11.70;91.60
1415;DHT22;702;49.466;11.086;2023-04-24T06:43:38;11.60;92.10
1415;DHT22;702;49.466;11.086;2023-04-24T06:46:05;11.60;92.50
1415;DHT22;702;49.466;11.086;2023-04-24T06:48:33;11.70;92.50
1415;DHT22;702;49.466;11.086;2023-04-24T06:51:02;11.70;92.80
1415;DHT22;702;49.466;11.086;2023-04-24T06:53:29;11.70;90.40
1415;DHT22;702;49.466;11.086;2023-04-24T06:55:56;11.70;90.80
1415;DHT22;702;49.466;11.086;2023-04-24T06:58:24;11.90;90.40
1415;DHT22;702;49.466;11.086;2023-04-24T07:00:52;12.10;90.00
1415;DHT22;702;49.466;11.086;2023-04-24T07:03:19;12.20;90.00
1415;DHT22;702;49.466;11.086;2023-04-24T07:05:46;12.40;89.40
1415;DHT22;702;49.466;11.086;2023-04-24T07:08:15;12.50;89.50
1415;DHT22;702;49.466;11.086;2023-04-24T07:10:43;12.30;87.10
1415;DHT22;702;49.466;11.086;2023-04-24T07:13:11;12.40;86.50
1415;DHT22;702;49.466;11.086;2023-04-24T07:15:38;12.50;84.70
1415;DHT22;702;49.466;11.086;2023-04-24T07:18:07;12.60;84.30
1415;DHT22;702;49.466;11.086;2023-04-24T07:20:34;12.80;84.90
1415;DHT22;702;49.466;11.086;2023-04-24T07:23:02;13.00;82.80
1415;DHT22;702;49.466;11.086;2023-04-24T07:25:31;13.20;82.40
1415;DHT22;702;49.466;11.086;2023-04-24T07:27:58;13.60;81.40
1415;DHT22;702;49.466;11.086;2023-04-24T07:30:25;13.60;79.40
1415;DHT22;702;49.466;11.086;2023-04-24T07:32:54;13.80;78.90
1415;DHT22;702;49.466;11.086;2023-04-24T07:35:21;13.90;76.10
1415;DHT22;702;49.466;11.086;2023-04-24T07:37:51;13.60;75.10
1415;DHT22;702;49.466;11.086;2023-04-24T07:40:18;13.30;74.40
1415;DHT22;702;49.466;11.086;2023-04-24T07:42:47;13.10;75.90
1415;DHT22;702;49.466;11.086;2023-04-24T07:45:15;13.10;75.70
1415;DHT22;702;49.466;11.086;2023-04-24T07:47:42;12.80;74.70
1415;DHT22;702;49.466;11.086;2023-04-24T07:50:13;12.60;74.70
1415;DHT22;702;49.466;11.086;2023-04-24T07:52:40;12.50;75.20
1415;DHT22;702;49.466;11.086;2023-04-24T07:55:07;12.50;75.00
1415;DHT22;702;49.466;11.086;2023-04-24T07:57:35;12.70;75.50
1415;DHT22;702;49.466;11.086;2023-04-24T08:00:05;13.00;74.50
1415;DHT22;702;49.466;11.086;2023-04-24T08:02:33;12.90;74.90
1415;DHT22;702;49.466;11.086;2023-04-24T08:05:03;13.00;74.10
1415;DHT22;702;49.466;11.086;2023-04-24T08:07:31;13.10;74.80
1415;DHT22;702;49.466;11.086;2023-04-24T08:09:58;13.40;72.80
1415;DHT22;702;49.466;11.086;2023-04-24T08:12:25;13.60;72.40
1415;DHT22;702;49.466;11.086;2023-04-24T08:14:52;13.50;71.10
1415;DHT22;702;49.466;11.086;2023-04-24T08:17:21;13.80;69.90
1415;DHT22;702;49.466;11.086;2023-04-24T08:19:49;14.00;69.20
1415;DHT22;702;49.466;11.086;2023-04-24T08:22:17;14.00;68.10
1415;DHT22;702;49.466;11.086;2023-04-24T08:24:44;14.00;68.10
1415;DHT22;702;49.466;11.086;2023-04-24T08:27:11;13.80;67.10
1415;DHT22;702;49.466;11.086;2023-04-24T08:29:39;13.70;67.50
1415;DHT22;702;49.466;11.086;2023-04-24T08:32:06;13.40;68.00
1415;DHT22;702;49.466;11.086;2023-04-24T08:34:34;13.00;68.50
1415;DHT22;702;49.466;11.086;2023-04-24T08:37:02;13.00;69.00
1415;DHT22;702;49.466;11.086;2023-04-24T08:39:29;12.70;67.60
1415;DHT22;702;49.466;11.086;2023-04-24T08:41:56;12.70;68.40
1415;DHT22;702;49.466;11.086;2023-04-24T08:44:32;13.30;68.70
1415;DHT22;702;49.466;11.086;2023-04-24T08:46:59;13.80;67.80
1415;DHT22;702;49.466;11.086;2023-04-24T08:49:28;14.10;66.50
1415;DHT22;702;49.466;11.086;2023-04-24T08:51:57;14.10;65.30
1415;DHT22;702;49.466;11.086;2023-04-24T08:54:25;14.10;64.90
1415;DHT22;702;49.466;11.086;2023-04-24T08:56:53;14.40;65.70
1415;DHT22;702;49.466;11.086;2023-04-24T08:59:23;14.80;64.00
1415;DHT22;702;49.466;11.086;2023-04-24T09:01:51;14.90;63.90
1415;DHT22;702;49.466;11.086;2023-04-24T09:04:20;14.80;63.30
1415;DHT22;702;49.466;11.086;2023-04-24T09:06:48;14.40;64.00
1415;DHT22;702;49.466;11.086;2023-04-24T09:09:17;13.90;63.80
1415;DHT22;702;49.466;11.086;2023-04-24T09:11:44;13.90;64.30
1415;DHT22;702;49.466;11.086;2023-04-24T09:14:13;14.10;63.90
1415;DHT22;702;49.466;11.086;2023-04-24T09:16:40;14.20;63.90
1415;DHT22;702;49.466;11.086;2023-04-24T09:19:08;14.20;63.60
1415;DHT22;702;49.466;11.086;2023-04-24T09:21:35;13.80;63.40
1415;DHT22;702;49.466;11.086;2023-04-24T09:24:06;13.60;63.80
1415;DHT22;702;49.466;11.086;2023-04-24T09:26:36;13.90;64.20
1415;DHT22;702;49.466;11.086;2023-04-24T09:29:04;14.20;64.40
1415;DHT22;702;49.466;11.086;2023-04-24T09:31:31;14.60;63.50
1415;DHT22;702;49.466;11.086;2023-04-24T09:34:00;14.30;62.40
1415;DHT22;702;49.466;11.086;2023-04-24T09:36:30;14.10;62.60
1415;DHT22;702;49.466;11.086;2023-04-24T09:38:59;13.90;62.50
1415;DHT22;702;49.466;11.086;2023-04-24T09:41:28;14.10;62.90
1415;DHT22;702;49.466;11.086;2023-04-24T09:44:01;14.30;62.00
1415;DHT22;702;49.466;11.086;2023-04-24T09:46:38;14.30;62.50
1415;DHT22;702;49.466;11.086;2023-04-24T09:49:09;14.80;61.40
1415;DHT22;702;49.466;11.086;2023-04-24T09:51:38;14.70;60.80
1415;DHT22;702;49.466;11.086;2023-04-24T09:54:14;14.50;59.80
1415;DHT22;702;49.466;11.086;2023-04-24T09:56:43;14.60;59.70
1415;DHT22;702;49.466;11.086;2023-04-24T09:59:15;14.80;59.20
1415;DHT22;702;49.466;11.086;2023-04-24T10:01:43;14.70;56.80
1415;DHT22;702;49.466;11.086;2023-04-24T10:04:18;14.50;55.90
1415;DHT22;702;49.466;11.086;2023-04-24T10:06:46;14.60;55.80
1415;DHT22;702;49.466;11.086;2023-04-24T10:09:16;14.70;55.50
1415;DHT22;702;49.466;11.086;2023-04-24T10:11:44;14.70;55.10
1415;DHT22;702;49.466;11.086;2023-04-24T10:14:16;14.80;55.40
1415;DHT22;702;49.466;11.086;2023-04-24T10:16:44;14.70;55.70
1415;DHT22;702;49.466;11.086;2023-04-24T10:19:14;14.70;53.00
1415;DHT22;702;49.466;11.086;2023-04-24T10:21:43;14.60;51.90
1415;DHT22;702;49.466;11.086;2023-04-24T10:24:12;14.60;52.60
1415;DHT22;702;49.466;11.086;2023-04-24T10:26:40;15.10;52.50
1415;DHT22;702;49.466;11.086;2023-04-24T10:29:10;15.30;50.60
1415;DHT22;702;49.466;11.086;2023-04-24T10:31:39;15.40;49.70
1415;DHT22;702;49.466;11.086;2023-04-24T10:34:08;15.40;49.20
1415;DHT22;702;49.466;11.086;2023-04-24T10:36:40;15.80;49.30
1415;DHT22;702;49.466;11.086;2023-04-24T10:39:12;15.90;49.10
1415;DHT22;702;49.466;11.086;2023-04-24T10:41:41;15.90;49.40
1415;DHT22;702;49.466;11.086;2023-04-24T10:44:09;15.40;53.30
1415;DHT22;702;49.466;11.086;2023-04-24T10:46:43;14.80;55.60
1415;DHT22;702;49.466;11.086;2023-04-24T10:49:11;13.90;57.30
1415;DHT22;702;49.466;11.086;2023-04-24T10:51:46;13.50;58.10
1415;DHT22;702;49.466;11.086;2023-04-24T10:54:25;13.20;58.40
1415;DHT22;702;49.466;11.086;2023-04-24T10:57:21;12.70;58.90
1415;DHT22;702;49.466;11.086;2023-04-24T11:00:19;12.60;60.00
1415;DHT22;702;49.466;11.086;2023-04-24T11:02:48;12.60;59.30
1415;DHT22;702;49.466;11.086;2023-04-24T11:05:19;12.40;59.30
1415;DHT22;702;49.466;11.086;2023-04-24T11:08:14;12.40;58.20
1415;DHT22;702;49.466;11.086;2023-04-24T11:10:46;12.30;58.60
1415;DHT22;702;49.466;11.086;2023-04-24T11:13:23;12.50;57.60
1415;DHT22;702;49.466;11.086;2023-04-24T11:16:15;12.50;56.50
1415;DHT22;702;49.466;11.086;2023-04-24T11:18:44;12.60;55.80
1415;DHT22;702;49.466;11.086;2023-04-24T11:21:17;12.80;55.00
1415;DHT22;702;49.466;11.086;2023-04-24T11:23:45;13.30;55.40
1415;DHT22;702;49.466;11.086;2023-04-24T11:26:17;13.70;53.80
1415;DHT22;702;49.466;11.086;2023-04-24T11:28:46;13.90;52.20
1415;DHT22;702;49.466;11.086;2023-04-24T11:31:36;14.00;52.40
1415;DHT22;702;49.466;11.086;2023-04-24T11:34:12;14.10;51.80
1415;DHT22;702;49.466;11.086;2023-04-24T11:36:43;14.20;52.20
1415;DHT22;702;49.466;11.086;2023-04-24T11:39:11;14.00;52.00
1415;DHT22;702;49.466;11.086;2023-04-24T11:41:39;14.20;52.40
1415;DHT22;702;49.466;11.086;2023-04-24T11:44:08;14.30;52.70
1415;DHT22;702;49.466;11.086;2023-04-24T11:46:35;14.20;52.90
1415;DHT22;702;49.466;11.086;2023-04-24T11:49:05;13.90;53.30
1415;DHT22;702;49.466;11.086;2023-04-24T11:51:34;13.90;53.50
1415;DHT22;702;49.466;11.086;2023-04-24T11:54:01;13.80;53.60
1415;DHT22;702;49.466;11.086;2023-04-24T11:56:29;13.50;54.80
1415;DHT22;702;49.466;11.086;2023-04-24T11:58:56;13.00;55.50
1415;DHT22;702;49.466;11.086;2023-04-24T12:01:24;12.80;56.60
1415;DHT22;702;49.466;11.086;2023-04-24T12:03:51;12.90;56.90
1415;DHT22;702;49.466;11.086;2023-04-24T12:06:26;13.30;55.40
1415;DHT22;702;49.466;11.086;2023-04-24T12:08:55;13.40;54.50
1415;DHT22;702;49.466;11.086;2023-04-24T12:11:23;13.70;53.10
1415;DHT22;702;49.466;11.086;2023-04-24T12:13:51;13.80;53.10
1415;DHT22;702;49.466;11.086;2023-04-24T12:16:18;14.30;52.70
1415;DHT22;702;49.466;11.086;2023-04-24T12:18:46;14.40;52.50
1415;DHT22;702;49.466;11.086;2023-04-24T12:21:17;14.40;52.50
1415;DHT22;702;49.466;11.086;2023-04-24T12:23:45;14.60;52.00
1415;DHT22;702;49.466;11.086;2023-04-24T12:26:16;14.80;52.50
1415;DHT22;702;49.466;11.086;2023-04-24T12:28:47;15.00;52.60
1415;DHT22;702;49.466;11.086;2023-04-24T12:31:15;15.20;53.10
1415;DHT22;702;49.466;11.086;2023-04-24T12:33:44;15.30;52.50
1415;DHT22;702;49.466;11.086;2023-04-24T12:36:11;15.40;52.60
1415;DHT22;702;49.466;11.086;2023-04-24T12:38:39;15.70;51.70
1415;DHT22;702;49.466;11.086;2023-04-24T12:41:11;15.10;51.10
1415;DHT22;702;49.466;11.086;2023-04-24T12:43:51;14.80;51.60
1415;DHT22;702;49.466;11.086;2023-04-24T12:46:19;14.90;52.00
1415;DHT22;702;49.466;11.086;2023-04-24T12:48:46;14.50;52.00
1415;DHT22;702;49.466;11.086;2023-04-24T12:51:13;14.50;52.60
1415;DHT22;702;49.466;11.086;2023-04-24T12:53:41;14.70;52.30
1415;DHT22;702;49.466;11.086;2023-04-24T12:56:08;14.90;52.00
1415;DHT22;702;49.466;11.086;2023-04-24T12:58:35;15.00;51.80
1415;DHT22;702;49.466;11.086;2023-04-24T13:01:04;14.70;51.20
1415;DHT22;702;49.466;11.086;2023-04-24T13:03:31;14.70;51.50
1415;DHT22;702;49.466;11.086;2023-04-24T13:05:58;14.50;50.90
1415;DHT22;702;49.466;11.086;2023-04-24T13:08:25;14.50;51.20
1415;DHT22;702;49.466;11.086;2023-04-24T13:10:53;14.50;50.70
1415;DHT22;702;49.466;11.086;2023-04-24T13:13:20;14.60;50.80
1415;DHT22;702;49.466;11.086;2023-04-24T13:15:47;14.60;51.00
1415;DHT22;702;49.466;11.086;2023-04-24T13:18:16;14.80;51.30
1415;DHT22;702;49.466;11.086;2023-04-24T13:20:43;14.90;50.80
1415;DHT22;702;49.466;11.086;2023-04-24T13:23:12;14.80;51.20
1415;DHT22;702;49.466;11.086;2023-04-24T13:25:40;14.30;51.60
1415;DHT22;702;49.466;11.086;2023-04-24T13:28:07;13.80;52.50
1415;DHT22;702;49.466;11.086;2023-04-24T13:30:34;13.40;53.60
1415;DHT22;702;49.466;11.086;2023-04-24T13:33:02;13.00;53.80
1415;DHT22;702;49.466;11.086;2023-04-24T13:35:31;12.90;54.20
1415;DHT22;702;49.466;11.086;2023-04-24T13:37:58;13.00;54.50
1415;DHT22;702;49.466;11.086;2023-04-24T13:40:27;13.30;54.70
1415;DHT22;702;49.466;11.086;2023-04-24T13:42:54;13.30;53.70
1415;DHT22;702;49.466;11.086;2023-04-24T13:45:21;13.20;53.80
1415;DHT22;702;49.466;11.086;2023-04-24T13:47:48;13.40;53.30
1415;DHT22;702;49.466;11.086;2023-04-24T13:50:15;13.60;53.60
1415;DHT22;702;49.466;11.086;2023-04-24T13:52:44;13.60;54.20
1415;DHT22;702;49.466;11.086;2023-04-24T13:55:11;13.30;53.10
1415;DHT22;702;49.466;11.086;2023-04-24T13:57:39;13.20;53.30
1415;DHT22;702;49.466;11.086;2023-04-24T14:00:08;13.10;53.60
1415;DHT22;702;49.466;11.086;2023-04-24T14:02:36;13.20;53.40
1415;DHT22;702;49.466;11.086;2023-04-24T14:05:04;13.20;53.50
1415;DHT22;702;49.466;11.086;2023-04-24T14:07:33;13.40;53.80
1415;DHT22;702;49.466;11.086;2023-04-24T14:10:02;13.70;54.20
1415;DHT22;702;49.466;11.086;2023-04-24T14:12:29;13.90;53.80
1415;DHT22;702;49.466;11.086;2023-04-24T14:14:56;13.90;53.30
1415;DHT22;702;49.466;11.086;2023-04-24T14:17:24;13.70;53.40
1415;DHT22;702;49.466;11.086;2023-04-24T14:19:51;13.60;53.60
1415;DHT22;702;49.466;11.086;2023-04-24T14:22:21;13.60;53.60
1415;DHT22;702;49.466;11.086;2023-04-24T14:24:49;13.40;54.10
1415;DHT22;702;49.466;11.086;2023-04-24T14:27:17;13.30;54.10
1415;DHT22;702;49.466;11.086;2023-04-24T14:29:44;13.50;54.50
1415;DHT22;702;49.466;11.086;2023-04-24T14:32:11;14.10;54.40
1415;DHT22;702;49.466;11.086;2023-04-24T14:34:40;14.50;53.90
1415;DHT22;702;49.466;11.086;2023-04-24T14:37:08;14.50;53.70
1415;DHT22;702;49.466;11.086;2023-04-24T14:39:35;14.80;53.60
1415;DHT22;702;49.466;11.086;2023-04-24T14:42:02;14.30;53.30
1415;DHT22;702;49.466;11.086;2023-04-24T14:44:32;13.90;53.70
1415;DHT22;702;49.466;11.086;2023-04-24T14:47:00;13.60;54.20
1415;DHT22;702;49.466;11.086;2023-04-24T14:49:27;13.50;54.50
1415;DHT22;702;49.466;11.086;2023-04-24T14:51:54;13.50;54.70
1415;DHT22;702;49.466;11.086;2023-04-24T14:54:21;13.80;54.80
1415;DHT22;702;49.466;11.086;2023-04-24T14:56:49;13.80;54.20
1415;DHT22;702;49.466;11.086;2023-04-24T14:59:17;13.70;55.50
1415;DHT22;702;49.466;11.086;2023-04-24T15:01:45;13.50;56.00
1415;DHT22;702;49.466;11.086;2023-04-24T15:04:12;13.60;55.50
1415;DHT22;702;49.466;11.086;2023-04-24T15:06:39;13.40;55.20
1415;DHT22;702;49.466;11.086;2023-04-24T15:09:07;13.20;54.20
1415;DHT22;702;49.466;11.086;2023-04-24T15:11:34;13.30;54.10
1415;DHT22;702;49.466;11.086;2023-04-24T15:14:01;13.30;53.80
1415;DHT22;702;49.466;11.086;2023-04-24T15:16:29;13.40;53.90
1415;DHT22;702;49.466;11.086;2023-04-24T15:18:58;13.40;54.40
1415;DHT22;702;49.466;11.086;2023-04-24T15:21:26;13.50;54.60
1415;DHT22;702;49.466;11.086;2023-04-24T15:23:53;13.70;54.70
1415;DHT22;702;49.466;11.086;2023-04-24T15:26:22;13.70;54.40
1415;DHT22;702;49.466;11.086;2023-04-24T15:28:50;13.70;54.60
1415;DHT22;702;49.466;11.086;2023-04-24T15:31:18;13.80;55.10
1415;DHT22;702;49.466;11.086;2023-04-24T15:33:45;13.90;54.80
1415;DHT22;702;49.466;11.086;2023-04-24T15:36:17;13.80;54.90
1415;DHT22;702;49.466;11.086;2023-04-24T15:38:46;13.40;55.30
1415;DHT22;702;49.466;11.086;2023-04-24T15:41:14;13.00;55.90
1415;DHT22;702;49.466;11.086;2023-04-24T15:43:41;13.00;56.20
1415;DHT22;702;49.466;11.086;2023-04-24T15:46:09;13.00;55.90
1415;DHT22;702;49.466;11.086;2023-04-24T15:48:37;12.90;56.30
1415;DHT22;702;49.466;11.086;2023-04-24T15:51:06;12.80;56.60
1415;DHT22;702;49.466;11.086;2023-04-24T15:53:35;12.80;57.10
1415;DHT22;702;49.466;11.086;2023-04-24T15:56:02;12.70;56.10
1415;DHT22;702;49.466;11.086;2023-04-24T15:58:29;12.60;55.60
1415;DHT22;702;49.466;11.086;2023-04-24T16:00:57;12.60;54.20
1415;DHT22;702;49.466;11.086;2023-04-24T16:03:24;12.60;53.50
1415;DHT22;702;49.466;11.086;2023-04-24T16:05:52;12.60;53.20
1415;DHT22;702;49.466;11.086;2023-04-24T16:08:19;12.40;53.20
1415;DHT22;702;49.466;11.086;2023-04-24T16:10:48;12.30;53.70